sensor_id;sensor_type;location;lat;lon;timestamp;pressure;altitude;pressure_sealevel;temperature;humidity
33506;BME280;19843;51.040;13.782;2023-02-01T00:00:01;100145.75;;;5.70;79.27
33506;BME280;19843;51.040;13.782;2023-02-01T00:02:29;100136.34;;;5.62;79.26
33506;BME280;19843;51.040;13.782;2023-02-01T00:04:56;100141.53;;;5.65;78.77
33506;BME280;19843;51.040;13.782;2023-02-01T00:07:23;100149.97;;;5.74;78.55
33506;BME280;19843;51.040;13.782;2023-02-01T00:09:52;100157.56;;;5.64;78.83
33506;BME280;19843;51.040;13.782;2023-02-01T00:12:19;100162.09;;;5.62;78.97
33506;BME280;19843;51.040;13.782;2023-02-01T00:14:47;100147.22;;;5.58;78.94
33506;BME280;19843;51.040;13.782;2023-02-01T00:17:14;100157.50;;;5.65;78.50
33506;BME280;19843;51.040;13.782;2023-02-01T00:19:42;100164.34;;;5.70;78.07
33506;BME280;19843;51.040;13.782;2023-02-01T00:22:09;100150.44;;;5.64;78.30
33506;BME280;19843;51.040;13.782;2023-02-01T00:24:36;100158.81;;;5.74;77.86
33506;BME280;19843;51.040;13.782;2023-02-01T00:27:05;100160.31;;;5.80;77.96
33506;BME280;19843;51.040;13.782;2023-02-01T00:29:32;100164.06;;;5.76;78.17
33506;BME280;19843;51.040;13.782;2023-02-01T00:32:00;100154.13;;;5.79;77.86
33506;BME280;19843;51.040;13.782;2023-02-01T00:34:27;100158.03;;;5.90;78.05
33506;BME280;19843;51.040;13.782;2023-02-01T00:36:55;100151.84;;;5.89;77.83
33506;BME280;19843;51.040;13.782;2023-02-01T00:39:22;100172.97;;;5.92;77.72
33506;BME280;19843;51.040;13.782;2023-02-01T00:41:50;100164.44;;;5.85;77.91
33506;BME280;19843;51.040;13.782;2023-02-01T00:44:18;100162.81;;;5.83;78.36
33506;BME280;19843;51.040;13.782;2023-02-01T00:46:46;100173.91;;;5.91;78.31
33506;BME280;19843;51.040;13.782;2023-02-01T00:49:13;100161.28;;;5.96;78.23
33506;BME280;19843;51.040;13.782;2023-02-01T00:51:41;100172.34;;;5.87;78.42
33506;BME280;19843;51.040;13.782;2023-02-01T00:54:08;100156.94;;;5.94;77.98
33506;BME280;19843;51.040;13.782;2023-02-01T00:56:36;100174.84;;;5.90;77.62
33506;BME280;19843;51.040;13.782;2023-02-01T00:59:03;100171.25;;;5.91;77.04
33506;BME280;19843;51.040;13.782;2023-02-01T01:01:32;100174.34;;;6.01;76.96
33506;BME280;19843;51.040;13.782;2023-02-01T01:03:59;100160.00;;;5.86;76.77
33506;BME280;19843;51.040;13.782;2023-02-01T01:06:28;100170.31;;;5.92;76.33
33506;BME280;19843;51.040;13.782;2023-02-01T01:08:57;100175.63;;;5.92;76.32
33506;BME280;19843;51.040;13.782;2023-02-01T01:11:27;100166.72;;;5.93;76.71
33506;BME280;19843;51.040;13.782;2023-02-01T01:13:56;100166.41;;;5.82;76.05
33506;BME280;19843;51.040;13.782;2023-02-01T01:16:26;100169.25;;;5.96;75.59
33506;BME280;19843;51.040;13.782;2023-02-01T01:18:56;100175.41;;;5.79;76.03
33506;BME280;19843;51.040;13.782;2023-02-01T01:21:23;100167.50;;;5.78;76.14
33506;BME280;19843;51.040;13.782;2023-02-01T01:23:51;100161.47;;;5.74;75.84
33506;BME280;19843;51.040;13.782;2023-02-01T01:26:20;100160.31;;;5.80;75.58
33506;BME280;19843;51.040;13.782;2023-02-01T01:28:49;100159.28;;;5.82;75.61
33506;BME280;19843;51.040;13.782;2023-02-01T01:31:17;100164.53;;;5.84;75.16
33506;BME280;19843;51.040;13.782;2023-02-01T01:33:48;100167.75;;;5.91;75.40
33506;BME280;19843;51.040;13.782;2023-02-01T01:36:17;100162.66;;;5.86;74.78
33506;BME280;19843;51.040;13.782;2023-02-01T01:38:45;100164.19;;;5.90;75.02
33506;BME280;19843;51.040;13.782;2023-02-01T01:41:14;100161.53;;;5.90;73.98
33506;BME280;19843;51.040;13.782;2023-02-01T01:43:54;100162.66;;;5.86;74.50
33506;BME280;19843;51.040;13.782;2023-02-01T01:46:24;100164.44;;;5.85;74.35
33506;BME280;19843;51.040;13.782;2023-02-01T01:48:57;100157.16;;;5.89;74.09
33506;BME280;19843;51.040;13.782;2023-02-01T01:51:30;100155.00;;;5.80;74.08
33506;BME280;19843;51.040;13.782;2023-02-01T01:54:03;100154.06;;;5.98;73.95
33506;BME280;19843;51.040;13.782;2023-02-01T01:56:33;100156.31;;;5.89;74.21
33506;BME280;19843;51.040;13.782;2023-02-01T01:59:02;100145.19;;;5.80;73.78
33506;BME280;19843;51.040;13.782;2023-02-01T02:01:31;100151.25;;;5.84;73.93
33506;BME280;19843;51.040;13.782;2023-02-01T02:03:59;100153.34;;;5.77;74.28
33506;BME280;19843;51.040;13.782;2023-02-01T02:06:36;100158.44;;;5.82;73.57
33506;BME280;19843;51.040;13.782;2023-02-01T02:09:06;100137.44;;;5.76;73.85
33506;BME280;19843;51.040;13.782;2023-02-01T02:11:33;100153.13;;;5.82;73.86
33506;BME280;19843;51.040;13.782;2023-02-01T02:14:01;100155.66;;;5.83;74.06
33506;BME280;19843;51.040;13.782;2023-02-01T02:16:49;100140.97;;;5.76;73.97
33506;BME280;19843;51.040;13.782;2023-02-01T02:19:39;100139.09;;;5.78;72.92
33506;BME280;19843;51.040;13.782;2023-02-01T02:22:35;100129.06;;;5.83;72.65
33506;BME280;19843;51.040;13.782;2023-02-01T02:25:21;100133.94;;;5.93;72.49
33506;BME280;19843;51.040;13.782;2023-02-01T02:28:05;100126.97;;;5.73;72.53
33506;BME280;19843;51.040;13.782;2023-02-01T02:30:43;100131.34;;;5.74;72.04
33506;BME280;19843;51.040;13.782;2023-02-01T02:36:20;100127.59;;;5.78;71.96
33506;BME280;19843;51.040;13.782;2023-02-01T02:38:54;100130.00;;;5.82;71.73
33506;BME280;19843;51.040;13.782;2023-02-01T02:41:28;100118.81;;;5.76;71.87
33506;BME280;19843;51.040;13.782;2023-02-01T02:44:27;100120.25;;;5.65;72.52
33506;BME280;19843;51.040;13.782;2023-02-01T02:47:22;100119.47;;;5.63;72.68
33506;BME280;19843;51.040;13.782;2023-02-01T02:49:56;100115.78;;;5.49;72.56
33506;BME280;19843;51.040;13.782;2023-02-01T02:52:48;100116.72;;;5.65;72.69
33506;BME280;19843;51.040;13.782;2023-02-01T02:55:37;100120.69;;;5.56;73.24
33506;BME280;19843;51.040;13.782;2023-02-01T02:58:07;100117.91;;;5.59;73.31
33506;BME280;19843;51.040;13.782;2023-02-01T03:00:53;100121.88;;;5.51;72.64
33506;BME280;19843;51.040;13.782;2023-02-01T03:03:39;100124.38;;;5.54;73.45
33506;BME280;19843;51.040;13.782;2023-02-01T03:06:25;100130.13;;;5.63;73.03
33506;BME280;19843;51.040;13.782;2023-02-01T03:08:57;100127.13;;;5.52;73.75
33506;BME280;19843;51.040;13.782;2023-02-01T03:11:25;100136.53;;;5.59;72.38
33506;BME280;19843;51.040;13.782;2023-02-01T03:14:15;100127.91;;;5.54;73.44
33506;BME280;19843;51.040;13.782;2023-02-01T03:16:47;100128.91;;;5.52;73.06
33506;BME280;19843;51.040;13.782;2023-02-01T03:19:20;100134.94;;;5.55;72.87
33506;BME280;19843;51.040;13.782;2023-02-01T03:21:52;100131.56;;;5.52;73.17
33506;BME280;19843;51.040;13.782;2023-02-01T03:24:22;100145.28;;;5.61;72.88
33506;BME280;19843;51.040;13.782;2023-02-01T03:27:03;100134.47;;;5.64;73.17
33506;BME280;19843;51.040;13.782;2023-02-01T03:29:38;100142.44;;;5.47;73.10
33506;BME280;19843;51.040;13.782;2023-02-01T03:32:07;100143.25;;;5.67;72.79
33506;BME280;19843;51.040;13.782;2023-02-01T03:34:36;100135.56;;;5.60;73.15
33506;BME280;19843;51.040;13.782;2023-02-01T03:37:06;100133.38;;;5.51;73.08
33506;BME280;19843;51.040;13.782;2023-02-01T03:39:39;100115.31;;;5.58;72.42
33506;BME280;19843;51.040;13.782;2023-02-01T03:42:13;100120.09;;;5.69;72.60
33506;BME280;19843;51.040;13.782;2023-02-01T03:44:46;100117.66;;;5.64;72.03
33506;BME280;19843;51.040;13.782;2023-02-01T03:47:18;100118.34;;;5.68;71.99
33506;BME280;19843;51.040;13.782;2023-02-01T03:49:50;100124.47;;;5.70;71.69
33506;BME280;19843;51.040;13.782;2023-02-01T03:52:23;100119.06;;;5.71;71.68
33506;BME280;19843;51.040;13.782;2023-02-01T03:54:52;100119.31;;;5.67;72.32
33506;BME280;19843;51.040;13.782;2023-02-01T03:57:21;100115.00;;;5.64;72.31
33506;BME280;19843;51.040;13.782;2023-02-01T03:59:49;100117.19;;;5.73;71.95
33506;BME280;19843;51.040;13.782;2023-02-01T04:02:16;100104.13;;;5.69;72.07
33506;BME280;19843;51.040;13.782;2023-02-01T04:04:44;100104.13;;;5.69;71.66
33506;BME280;19843;51.040;13.782;2023-02-01T04:07:11;100099.19;;;5.78;71.28
33506;BME280;19843;51.040;13.782;2023-02-01T04:09:40;100097.72;;;5.73;71.61
33506;BME280;19843;51.040;13.782;2023-02-01T04:12:08;100092.22;;;5.76;71.51
33506;BME280;19843;51.040;13.782;2023-02-01T04:14:35;100096.53;;;5.78;71.41
33506;BME280;19843;51.040;13.782;2023-02-01T04:17:03;100086.25;;;5.88;71.62
33506;BME280;19843;51.040;13.782;2023-02-01T04:19:30;100084.00;;;5.80;70.99
33506;BME280;19843;51.040;13.782;2023-02-01T04:21:57;100086.91;;;5.76;70.75
33506;BME280;19843;51.040;13.782;2023-02-01T04:24:25;100078.44;;;5.85;70.96
33506;BME280;19843;51.040;13.782;2023-02-01T04:26:53;100079.41;;;5.84;71.09
33506;BME280;19843;51.040;13.782;2023-02-01T04:29:21;100080.41;;;5.81;70.01
33506;BME280;19843;51.040;13.782;2023-02-01T04:31:48;100075.00;;;5.83;70.17
33506;BME280;19843;51.040;13.782;2023-02-01T04:34:16;100077.03;;;5.78;70.01
33506;BME280;19843;51.040;13.782;2023-02-01T04:36:43;100071.56;;;5.81;69.94
33506;BME280;19843;51.040;13.782;2023-02-01T04:39:12;100073.28;;;5.82;70.08
33506;BME280;19843;51.040;13.782;2023-02-01T04:41:40;100070.38;;;5.86;70.47
33506;BME280;19843;51.040;13.782;2023-02-01T04:44:13;100063.88;;;5.92;69.57
33506;BME280;19843;51.040;13.782;2023-02-01T04:46:41;100072.34;;;5.83;70.05
33506;BME280;19843;51.040;13.782;2023-02-01T04:49:09;100058.59;;;5.75;69.92
33506;BME280;19843;51.040;13.782;2023-02-01T04:51:37;100069.53;;;5.86;69.68
33506;BME280;19843;51.040;13.782;2023-02-01T04:54:04;100043.06;;;5.83;69.78
33506;BME280;19843;51.040;13.782;2023-02-01T04:56:32;100044.03;;;5.82;70.08
33506;BME280;19843;51.040;13.782;2023-02-01T04:59:01;100047.38;;;5.85;69.51
33506;BME280;19843;51.040;13.782;2023-02-01T05:01:30;100043.69;;;5.88;69.55
33506;BME280;19843;51.040;13.782;2023-02-01T05:03:58;100045.13;;;5.78;69.41
33506;BME280;19843;51.040;13.782;2023-02-01T05:06:25;100032.91;;;5.74;70.05
33506;BME280;19843;51.040;13.782;2023-02-01T05:08:53;100029.66;;;5.69;69.49
33506;BME280;19843;51.040;13.782;2023-02-01T05:11:20;100023.13;;;5.74;69.74
33506;BME280;19843;51.040;13.782;2023-02-01T05:14:04;100020.47;;;5.74;69.85
33506;BME280;19843;51.040;13.782;2023-02-01T05:16:33;100020.94;;;5.82;69.06
33506;BME280;19843;51.040;13.782;2023-02-01T05:19:01;100008.59;;;5.81;69.48
33506;BME280;19843;51.040;13.782;2023-02-01T05:21:28;100006.31;;;5.74;69.20
33506;BME280;19843;51.040;13.782;2023-02-01T05:23:56;100007.25;;;5.73;68.80
33506;BME280;19843;51.040;13.782;2023-02-01T05:26:41;100006.16;;;5.77;68.94
33506;BME280;19843;51.040;13.782;2023-02-01T05:29:09;100003.00;;;5.86;68.70
33506;BME280;19843;51.040;13.782;2023-02-01T05:31:38;100003.34;;;5.80;69.46
33506;BME280;19843;51.040;13.782;2023-02-01T05:34:07;99991.56;;;5.68;70.10
33506;BME280;19843;51.040;13.782;2023-02-01T05:36:34;99988.00;;;5.68;69.42
33506;BME280;19843;51.040;13.782;2023-02-01T05:39:02;99987.75;;;5.72;69.23
33506;BME280;19843;51.040;13.782;2023-02-01T05:41:29;99989.06;;;5.81;69.38
33506;BME280;19843;51.040;13.782;2023-02-01T05:43:57;99994.00;;;5.89;68.82
33506;BME280;19843;51.040;13.782;2023-02-01T05:46:24;99989.31;;;5.76;69.39
33506;BME280;19843;51.040;13.782;2023-02-01T05:48:53;99993.28;;;5.85;68.89
33506;BME280;19843;51.040;13.782;2023-02-01T05:51:20;99998.94;;;5.79;69.20
33506;BME280;19843;51.040;13.782;2023-02-01T05:53:48;100007.25;;;5.73;69.39
33506;BME280;19843;51.040;13.782;2023-02-01T05:56:15;100001.34;;;5.83;69.14
33506;BME280;19843;51.040;13.782;2023-02-01T05:58:43;99982.47;;;5.88;68.45
33506;BME280;19843;51.040;13.782;2023-02-01T06:01:10;100001.34;;;5.83;68.65
33506;BME280;19843;51.040;13.782;2023-02-01T06:03:38;99997.34;;;5.92;68.20
33506;BME280;19843;51.040;13.782;2023-02-01T06:06:06;99997.81;;;6.00;68.17
33506;BME280;19843;51.040;13.782;2023-02-01T06:08:34;99986.25;;;5.84;68.82
33506;BME280;19843;51.040;13.782;2023-02-01T06:11:03;99990.25;;;5.93;69.13
33506;BME280;19843;51.040;13.782;2023-02-01T06:13:31;100000.88;;;5.93;69.11
33506;BME280;19843;51.040;13.782;2023-02-01T06:16:00;99990.09;;;5.78;69.68
33506;BME280;19843;51.040;13.782;2023-02-01T06:18:28;99992.75;;;5.78;69.35
33506;BME280;19843;51.040;13.782;2023-02-01T06:20:58;100001.03;;;5.90;69.33
33506;BME280;19843;51.040;13.782;2023-02-01T06:23:28;99994.00;;;5.89;68.63
33506;BME280;19843;51.040;13.782;2023-02-01T06:25:58;99992.88;;;5.77;69.12
33506;BME280;19843;51.040;13.782;2023-02-01T06:28:27;99979.59;;;5.93;69.00
33506;BME280;19843;51.040;13.782;2023-02-01T06:30:54;99998.16;;;5.94;68.85
33506;BME280;19843;51.040;13.782;2023-02-01T06:33:24;99991.00;;;5.95;69.39
33506;BME280;19843;51.040;13.782;2023-02-01T06:35:56;99985.75;;;5.77;69.24
33506;BME280;19843;51.040;13.782;2023-02-01T06:38:24;99988.16;;;5.82;69.48
33506;BME280;19843;51.040;13.782;2023-02-01T06:40:54;99996.03;;;5.83;69.34
33506;BME280;19843;51.040;13.782;2023-02-01T06:43:22;99992.56;;;5.99;69.15
33506;BME280;19843;51.040;13.782;2023-02-01T06:45:50;99994.41;;;5.81;69.77
33506;BME280;19843;51.040;13.782;2023-02-01T06:48:17;99985.75;;;5.77;70.73
33506;BME280;19843;51.040;13.782;2023-02-01T06:50:45;99990.34;;;5.74;71.76
33506;BME280;19843;51.040;13.782;2023-02-01T06:53:12;99989.91;;;5.65;72.47
33506;BME280;19843;51.040;13.782;2023-02-01T06:55:39;99971.72;;;5.74;73.01
33506;BME280;19843;51.040;13.782;2023-02-01T06:58:08;99976.13;;;5.75;72.65
33506;BME280;19843;51.040;13.782;2023-02-01T07:00:36;99978.94;;;5.72;71.69
33506;BME280;19843;51.040;13.782;2023-02-01T07:03:03;99975.25;;;5.74;72.20
33506;BME280;19843;51.040;13.782;2023-02-01T07:05:30;99978.44;;;5.81;71.90
33506;BME280;19843;51.040;13.782;2023-02-01T07:07:58;99962.66;;;5.78;72.22
33506;BME280;19843;51.040;13.782;2023-02-01T07:10:25;99966.94;;;5.80;72.20
33506;BME280;19843;51.040;13.782;2023-02-01T07:12:56;99987.38;;;5.80;71.91
33506;BME280;19843;51.040;13.782;2023-02-01T07:15:24;99970.81;;;5.75;73.06
33506;BME280;19843;51.040;13.782;2023-02-01T07:17:54;99974.25;;;5.77;73.52
33506;BME280;19843;51.040;13.782;2023-02-01T07:20:21;99980.84;;;5.85;74.05
33506;BME280;19843;51.040;13.782;2023-02-01T07:22:53;99969.56;;;5.64;75.47
33506;BME280;19843;51.040;13.782;2023-02-01T07:25:21;99978.56;;;5.62;76.74
33506;BME280;19843;51.040;13.782;2023-02-01T07:27:48;99977.44;;;5.50;77.87
33506;BME280;19843;51.040;13.782;2023-02-01T07:30:17;99970.31;;;5.33;80.20
33506;BME280;19843;51.040;13.782;2023-02-01T07:32:45;99972.59;;;5.41;80.80
33506;BME280;19843;51.040;13.782;2023-02-01T07:35:13;99972.91;;;5.17;82.71
33506;BME280;19843;51.040;13.782;2023-02-01T07:37:41;99965.66;;;5.03;83.03
33506;BME280;19843;51.040;13.782;2023-02-01T07:40:09;99968.41;;;5.02;84.21
33506;BME280;19843;51.040;13.782;2023-02-01T07:42:37;99964.63;;;5.06;84.66
33506;BME280;19843;51.040;13.782;2023-02-01T07:45:06;99961.34;;;4.84;84.20
33506;BME280;19843;51.040;13.782;2023-02-01T07:47:48;99952.47;;;5.02;84.29
33506;BME280;19843;51.040;13.782;2023-02-01T07:50:16;99955.44;;;4.96;83.28
33506;BME280;19843;51.040;13.782;2023-02-01T07:52:43;99959.50;;;5.20;83.42
33506;BME280;19843;51.040;13.782;2023-02-01T07:55:11;99948.13;;;5.17;82.96
33506;BME280;19843;51.040;13.782;2023-02-01T07:57:38;99949.41;;;5.10;83.31
33506;BME280;19843;51.040;13.782;2023-02-01T08:00:07;99940.66;;;5.08;82.12
33506;BME280;19843;51.040;13.782;2023-02-01T08:02:53;99940.94;;;5.19;80.97
33506;BME280;19843;51.040;13.782;2023-02-01T08:05:21;99934.63;;;5.21;81.69
33506;BME280;19843;51.040;13.782;2023-02-01T08:07:48;99930.31;;;5.19;80.62
33506;BME280;19843;51.040;13.782;2023-02-01T08:10:17;99946.25;;;5.36;79.24
33506;BME280;19843;51.040;13.782;2023-02-01T08:12:45;99929.72;;;5.47;79.95
33506;BME280;19843;51.040;13.782;2023-02-01T08:15:14;99931.09;;;5.38;79.18
33506;BME280;19843;51.040;13.782;2023-02-01T08:17:46;99932.78;;;5.39;79.49
33506;BME280;19843;51.040;13.782;2023-02-01T08:20:16;99925.16;;;5.49;80.29
33506;BME280;19843;51.040;13.782;2023-02-01T08:22:43;99938.19;;;5.38;80.19
33506;BME280;19843;51.040;13.782;2023-02-01T08:25:11;99943.91;;;5.30;80.13
33506;BME280;19843;51.040;13.782;2023-02-01T08:27:39;99939.94;;;5.21;79.91
33506;BME280;19843;51.040;13.782;2023-02-01T08:30:08;99929.66;;;5.31;80.27
33506;BME280;19843;51.040;13.782;2023-02-01T08:32:36;99927.59;;;5.20;81.60
33506;BME280;19843;51.040;13.782;2023-02-01T08:35:04;99920.06;;;5.29;82.35
33506;BME280;19843;51.040;13.782;2023-02-01T08:37:33;99911.19;;;5.12;82.39
33506;BME280;19843;51.040;13.782;2023-02-01T08:40:00;99901.94;;;5.19;81.82
33506;BME280;19843;51.040;13.782;2023-02-01T08:42:28;99906.50;;;5.33;80.54
33506;BME280;19843;51.040;13.782;2023-02-01T08:45:14;99898.94;;;5.43;78.73
33506;BME280;19843;51.040;13.782;2023-02-01T08:47:41;99902.25;;;5.47;77.91
33506;BME280;19843;51.040;13.782;2023-02-01T08:50:10;99894.50;;;5.59;76.51
33506;BME280;19843;51.040;13.782;2023-02-01T08:52:39;99897.94;;;5.77;75.20
33506;BME280;19843;51.040;13.782;2023-02-01T08:55:07;99893.91;;;5.86;74.49
33506;BME280;19843;51.040;13.782;2023-02-01T08:57:34;99889.34;;;5.88;73.44
33506;BME280;19843;51.040;13.782;2023-02-01T09:00:04;99893.31;;;6.13;73.46
33506;BME280;19843;51.040;13.782;2023-02-01T09:02:31;99889.38;;;6.20;71.60
33506;BME280;19843;51.040;13.782;2023-02-01T09:04:59;99891.53;;;6.29;71.90
33506;BME280;19843;51.040;13.782;2023-02-01T09:07:26;99893.03;;;6.33;71.86
33506;BME280;19843;51.040;13.782;2023-02-01T09:09:55;99878.25;;;6.43;71.80
33506;BME280;19843;51.040;13.782;2023-02-01T09:12:26;99900.06;;;6.50;71.73
33506;BME280;19843;51.040;13.782;2023-02-01T09:14:54;99889.59;;;6.31;71.68
33506;BME280;19843;51.040;13.782;2023-02-01T09:17:21;99886.34;;;6.26;71.22
33506;BME280;19843;51.040;13.782;2023-02-01T09:19:49;99892.69;;;6.39;71.56
33506;BME280;19843;51.040;13.782;2023-02-01T09:22:16;99893.22;;;6.30;71.85
33506;BME280;19843;51.040;13.782;2023-02-01T09:24:44;99898.75;;;6.27;72.65
33506;BME280;19843;51.040;13.782;2023-02-01T09:27:12;99887.63;;;6.35;72.27
33506;BME280;19843;51.040;13.782;2023-02-01T09:29:40;99887.13;;;6.28;73.36
33506;BME280;19843;51.040;13.782;2023-02-01T09:32:08;99897.97;;;6.25;73.63
33506;BME280;19843;51.040;13.782;2023-02-01T09:34:35;99898.38;;;6.17;75.12
33506;BME280;19843;51.040;13.782;2023-02-01T09:37:03;99888.97;;;5.96;76.73
33506;BME280;19843;51.040;13.782;2023-02-01T09:39:30;99895.28;;;5.93;77.99
33506;BME280;19843;51.040;13.782;2023-02-01T09:42:00;99885.75;;;5.89;78.87
33506;BME280;19843;51.040;13.782;2023-02-01T09:44:57;99903.19;;;5.95;78.77
33506;BME280;19843;51.040;13.782;2023-02-01T09:47:29;99908.06;;;5.71;79.68
33506;BME280;19843;51.040;13.782;2023-02-01T09:50:01;99911.97;;;5.48;82.25
33506;BME280;19843;51.040;13.782;2023-02-01T09:52:36;99919.66;;;5.36;84.49
33506;BME280;19843;51.040;13.782;2023-02-01T09:55:11;99943.31;;;5.08;87.53
33506;BME280;19843;51.040;13.782;2023-02-01T09:57:44;99932.31;;;4.98;89.29
33506;BME280;19843;51.040;13.782;2023-02-01T10:00:19;99939.09;;;4.86;90.56
33506;BME280;19843;51.040;13.782;2023-02-01T10:02:49;99938.03;;;4.54;90.99
33506;BME280;19843;51.040;13.782;2023-02-01T10:05:26;99947.97;;;4.50;93.06
33506;BME280;19843;51.040;13.782;2023-02-01T10:08:01;99952.09;;;4.38;92.42
33506;BME280;19843;51.040;13.782;2023-02-01T10:10:36;99958.44;;;4.53;93.31
33506;BME280;19843;51.040;13.782;2023-02-01T10:13:30;99959.22;;;4.55;93.96
33506;BME280;19843;51.040;13.782;2023-02-01T10:16:11;99969.09;;;4.34;94.00
33506;BME280;19843;51.040;13.782;2023-02-01T10:18:54;99958.03;;;4.44;94.22
33506;BME280;19843;51.040;13.782;2023-02-01T10:21:39;99981.41;;;4.35;93.92
33506;BME280;19843;51.040;13.782;2023-02-01T10:24:21;99969.38;;;4.28;94.74
33506;BME280;19843;51.040;13.782;2023-02-01T10:26:56;99969.78;;;4.38;94.17
33506;BME280;19843;51.040;13.782;2023-02-01T10:29:32;99970.34;;;4.27;94.61
33506;BME280;19843;51.040;13.782;2023-02-01T10:32:10;99963.84;;;4.33;95.14
33506;BME280;19843;51.040;13.782;2023-02-01T10:34:39;99976.84;;;4.39;94.99
33506;BME280;19843;51.040;13.782;2023-02-01T10:37:09;99967.69;;;4.64;94.36
33506;BME280;19843;51.040;13.782;2023-02-01T10:39:40;99966.34;;;4.72;93.74
33506;BME280;19843;51.040;13.782;2023-02-01T10:42:07;99963.09;;;4.85;93.87
33506;BME280;19843;51.040;13.782;2023-02-01T10:44:40;99962.69;;;4.75;92.64
33506;BME280;19843;51.040;13.782;2023-02-01T10:47:11;99961.75;;;4.93;92.94
33506;BME280;19843;51.040;13.782;2023-02-01T10:49:41;99962.84;;;5.07;92.99
33506;BME280;19843;51.040;13.782;2023-02-01T10:52:14;99956.19;;;4.80;91.73
33506;BME280;19843;51.040;13.782;2023-02-01T10:54:43;99966.97;;;4.95;91.95
33506;BME280;19843;51.040;13.782;2023-02-01T10:57:21;99959.00;;;5.12;91.37
33506;BME280;19843;51.040;13.782;2023-02-01T10:59:52;99956.19;;;5.33;89.50
33506;BME280;19843;51.040;13.782;2023-02-01T11:02:25;99964.69;;;5.39;87.72
33506;BME280;19843;51.040;13.782;2023-02-01T11:05:00;99962.50;;;5.48;86.77
33506;BME280;19843;51.040;13.782;2023-02-01T11:07:28;99966.13;;;5.62;86.02
33506;BME280;19843;51.040;13.782;2023-02-01T11:09:56;99960.66;;;5.65;85.65
33506;BME280;19843;51.040;13.782;2023-02-01T11:12:28;99963.94;;;5.71;84.68
33506;BME280;19843;51.040;13.782;2023-02-01T11:14:59;99973.75;;;5.86;84.54
33506;BME280;19843;51.040;13.782;2023-02-01T11:17:33;99959.31;;;5.90;83.32
33506;BME280;19843;51.040;13.782;2023-02-01T11:20:12;99974.47;;;6.05;83.12
33506;BME280;19843;51.040;13.782;2023-02-01T11:22:48;99970.25;;;6.01;82.05
33506;BME280;19843;51.040;13.782;2023-02-01T11:25:20;99967.94;;;5.95;82.81
33506;BME280;19843;51.040;13.782;2023-02-01T11:27:49;99969.22;;;6.04;82.98
33506;BME280;19843;51.040;13.782;2023-02-01T11:30:27;99962.25;;;6.01;82.28
33506;BME280;19843;51.040;13.782;2023-02-01T11:33:03;99953.88;;;6.09;81.36
33506;BME280;19843;51.040;13.782;2023-02-01T11:35:34;99962.28;;;6.17;80.51
33506;BME280;19843;51.040;13.782;2023-02-01T11:38:13;99943.91;;;6.13;79.18
33506;BME280;19843;51.040;13.782;2023-02-01T11:40:49;99955.91;;;6.20;79.07
33506;BME280;19843;51.040;13.782;2023-02-01T11:43:24;99951.38;;;6.22;79.01
33506;BME280;19843;51.040;13.782;2023-02-01T11:45:57;99944.00;;;6.27;78.54
33506;BME280;19843;51.040;13.782;2023-02-01T11:48:28;99939.28;;;6.32;78.47
33506;BME280;19843;51.040;13.782;2023-02-01T11:51:11;99948.69;;;6.54;77.68
33506;BME280;19843;51.040;13.782;2023-02-01T11:54:05;99936.97;;;6.56;77.33
33506;BME280;19843;51.040;13.782;2023-02-01T11:56:37;99933.13;;;6.62;77.54
33506;BME280;19843;51.040;13.782;2023-02-01T11:59:17;99934.44;;;6.55;78.41
33506;BME280;19843;51.040;13.782;2023-02-01T12:01:58;99930.06;;;6.38;78.62
33506;BME280;19843;51.040;13.782;2023-02-01T12:04:59;99922.78;;;6.25;79.02
33506;BME280;19843;51.040;13.782;2023-02-01T12:07:44;99924.47;;;6.26;79.86
33506;BME280;19843;51.040;13.782;2023-02-01T12:10:25;99928.88;;;6.43;78.37
33506;BME280;19843;51.040;13.782;2023-02-01T12:13:04;99919.31;;;6.39;78.40
33506;BME280;19843;51.040;13.782;2023-02-01T12:15:46;99920.88;;;6.43;78.61
33506;BME280;19843;51.040;13.782;2023-02-01T12:18:37;99919.56;;;6.51;77.49
33506;BME280;19843;51.040;13.782;2023-02-01T12:21:29;99919.50;;;6.52;77.85
33506;BME280;19843;51.040;13.782;2023-02-01T12:24:25;99895.81;;;6.62;76.33
33506;BME280;19843;51.040;13.782;2023-02-01T12:27:07;99904.16;;;6.56;75.21
33506;BME280;19843;51.040;13.782;2023-02-01T12:29:58;99911.50;;;6.52;75.38
33506;BME280;19843;51.040;13.782;2023-02-01T12:32:39;99920.66;;;6.62;75.51
33506;BME280;19843;51.040;13.782;2023-02-01T12:35:20;99903.31;;;6.55;74.50
33506;BME280;19843;51.040;13.782;2023-02-01T12:38:01;99902.13;;;6.61;74.63
33506;BME280;19843;51.040;13.782;2023-02-01T12:40:45;99907.44;;;6.61;74.25
33506;BME280;19843;51.040;13.782;2023-02-01T12:43:18;99901.44;;;6.57;74.61
33506;BME280;19843;51.040;13.782;2023-02-01T12:45:54;99914.28;;;6.65;75.05
33506;BME280;19843;51.040;13.782;2023-02-01T12:48:31;99904.16;;;6.56;74.62
33506;BME280;19843;51.040;13.782;2023-02-01T12:51:02;99911.34;;;6.69;74.96
33506;BME280;19843;51.040;13.782;2023-02-01T12:53:42;99903.09;;;6.74;74.83
33506;BME280;19843;51.040;13.782;2023-02-01T12:56:17;99894.44;;;6.71;74.32
33506;BME280;19843;51.040;13.782;2023-02-01T12:58:49;99877.75;;;6.67;74.13
33506;BME280;19843;51.040;13.782;2023-02-01T13:01:24;99898.16;;;6.82;74.16
33506;BME280;19843;51.040;13.782;2023-02-01T13:04:01;99906.31;;;6.95;74.63
33506;BME280;19843;51.040;13.782;2023-02-01T13:06:34;99891.16;;;6.96;74.26
33506;BME280;19843;51.040;13.782;2023-02-01T13:09:09;99892.84;;;6.97;74.31
33506;BME280;19843;51.040;13.782;2023-02-01T13:11:44;99886.19;;;6.89;73.39
33506;BME280;19843;51.040;13.782;2023-02-01T13:14:22;99898.59;;;6.90;73.94
33506;BME280;19843;51.040;13.782;2023-02-01T13:16:58;99895.22;;;6.87;73.29
33506;BME280;19843;51.040;13.782;2023-02-01T13:19:29;99897.16;;;6.99;73.69
33506;BME280;19843;51.040;13.782;2023-02-01T13:22:00;99891.53;;;7.04;72.76